Alma Center, WI

12:40 PM CST on November 26, 2014 (GMT -0600)
Marshfield Municipal | Change Station
CLOSE
Current Station
Airport
Location: Marshfield,
Elevation: 1276 ft
Nearby Weather Stations

Elev 1276 ft 44.64 °N, 90.19 °W | Updated 46 minutes ago

Overcast
Overcast
22 °F
Feels Like 17 °F
N
4
Wind Variable Wind from South

Today
High -- | Low -- °F
--% Chance of Precip.
Yesterday
High -- | Low -- °F
Precip. -- in
7:13 AM 4:27 PM
Waxing Crescent, 21% visible
Pressure 30.19 in
Visibility 8.0 miles
Clouds Overcast 7000 ft
Windchill 17 °F
Dew Point 16 °F
Humidity 78%
Rainfall 0.00 in
Snow Depth Not available.
UV 1 out of 12
Pollen .10 out of 12
Air Quality Not available.
Flu Activity Not available.
METAR KMFI 261754Z AUTO 19003KT 8SM OVC070 M06/M09 A3012 RMK AO2 SLP221 T10561089 11050 21083 50003

More Conditions Fewer Conditions

Pressure 30.19 in
Visibility 8.0 miles
Clouds Overcast 7000 ft
Windchill 17 °F
Dew Point 16 °F
Humidity 78%
Rainfall 0.00 in
Snow Depth Not available.
UV 1 out of 12
Pollen .10 out of 12
Air Quality Not available.
Flu Activity Not available.
METAR KMFI 261754Z AUTO 19003KT 8SM OVC070 M06/M09 A3012 RMK AO2 SLP221 T10561089 11050 21083 50003

More Conditions Fewer Conditions

10-Day Weather Forecast

Almanac

Astronomy

Nov. 26, 2014 Rise Set
Actual Time
Civil Twilight
Nautical Twilight
Astronomical Twilight
Moon
Length of Visible Light
Length of Day
Tomorrow will be .
, % of the Moon is Illuminated

Today's Extremes

State Highs State Lows

Community

WunderPhotos

Upload Photos

1,773,827 photos uploaded!

WunderBlogs® & News

Nearby

Air Quality

  Air Quality AQ Index Pollutant
Not available.

Snow Depth

Station Depth Elevation

Earthquake Activity

City Distance Mag. Time & Date
Minimum magnitude displayed is 2.5.

Coastal Water Temperatures

Place Temperature

Nearby Weather Stations